Time;durP1;ratioP1;P1;durP2;ratioP2;P2;SDS_P1;SDS_P2;PMS_P1;PMS_P2;Temp;Humidity;BMP_temperature;BMP_pressure;BME280_temperature;BME280_humidity;BME280_pressure;Samples;Min_cycle;Max_cycle;Signal;HPM_P1;HPM_P2
2022/04/09 12:11:28;;;;;;;5.97;2.00;;;;;;;10.65;36.50;97823.83;1685817;84;21052;-38
2022/04/09 12:13:54;;;;;;;4.25;1.80;;;;;;;10.24;37.24;97830.52;1688789;83;21031;-38
2022/04/09 12:16:20;;;;;;;1.10;1.00;;;;;;;10.31;34.02;97832.20;1703617;83;21536;-39
2022/04/09 12:18:48;;;;;;;2.15;1.05;;;;;;;10.17;33.03;97818.33;1686946;83;21099;-38
2022/04/09 12:21:23;;;;;;;7.83;1.20;;;;;;;10.23;31.72;97820.95;1682784;83;21591;-39
2022/04/09 12:24:05;;;;;;;6.60;2.08;;;;;;;10.75;31.93;97822.16;1702626;83;21032;-40
2022/04/09 12:26:33;;;;;;;4.47;1.77;;;;;;;10.55;33.34;97830.31;1675011;83;21594;-38
2022/04/09 12:29:26;;;;;;;4.83;2.20;;;;;;;10.75;35.10;97830.05;1675702;84;21023;-40
2022/04/09 12:32:14;;;;;;;7.15;2.58;;;;;;;11.14;35.84;97833.06;1692611;83;21064;-39
2022/04/09 12:35:04;;;;;;;3.33;2.05;;;;;;;11.94;34.65;97840.66;1679755;83;21086;-40
2022/04/09 12:37:30;;;;;;;4.42;1.80;;;;;;;12.94;33.29;97846.57;1705394;83;20993;-39
2022/04/09 12:40:26;;;;;;;2.95;2.20;;;;;;;13.38;31.86;97838.67;1691669;83;21485;-40
2022/04/09 12:42:52;;;;;;;2.87;1.90;;;;;;;13.55;33.05;97845.55;1697688;83;20947;-42
2022/04/09 12:45:23;;;;;;;5.22;2.20;;;;;;;14.05;32.35;97835.30;1689626;83;21049;-37
2022/04/09 12:48:06;;;;;;;2.52;1.80;;;;;;;13.81;30.91;97842.70;1688029;84;21056;-40
2022/04/09 12:50:35;;;;;;;3.77;2.02;;;;;;;14.34;30.43;97844.47;1678185;84;21444;-41
2022/04/09 12:53:05;;;;;;;3.77;1.90;;;;;;;14.96;30.90;97847.43;1708671;83;21012;-41
2022/04/09 12:55:32;;;;;;;5.97;2.02;;;;;;;14.26;29.52;97840.38;1687686;84;21548;-41
2022/04/09 12:57:59;;;;;;;3.42;2.15;;;;;;;14.89;31.11;97845.03;1677885;83;20985;-40
2022/04/09 13:00:32;;;;;;;3.25;2.00;;;;;;;15.13;29.25;97855.05;1690723;84;20985;-39
2022/04/09 13:02:54;;;;;;;6.70;2.20;;;;;;;15.80;29.65;97856.06;1693860;84;20965;-42
2022/04/09 13:05:21;;;;;;;4.00;1.55;;;;;;;16.96;29.12;97873.05;1683609;83;20977;-42
2022/04/09 13:07:46;;;;;;;6.43;2.30;;;;;;;17.62;26.93;97873.53;1689281;83;21032;-40
2022/04/09 13:10:14;;;;;;;3.40;1.75;;;;;;;17.59;26.81;97868.56;1684903;83;20974;-37
2022/04/09 13:12:41;;;;;;;2.33;1.60;;;;;;;16.88;26.80;97875.16;1689682;83;21027;-37
2022/04/09 13:15:08;;;;;;;5.33;1.60;;;;;;;16.23;26.98;97878.27;1686026;84;21018;-40
2022/04/09 13:17:35;;;;;;;3.65;1.98;;;;;;;15.30;27.95;97886.54;1684334;84;21058;-37
2022/04/09 13:20:08;;;;;;;3.27;1.80;;;;;;;14.77;28.18;97892.87;1688661;84;21047;-36
2022/04/09 13:22:34;;;;;;;8.75;2.20;;;;;;;16.38;27.10;97875.37;1708540;82;21026;-36
2022/04/09 13:25:00;;;;;;;14.93;10.30;;;;;;;17.18;26.26;97892.88;1706843;83;21013;-37
2022/04/09 13:27:32;;;;;;;6.90;2.95;;;;;;;16.07;26.23;97885.61;1740193;81;21552;-40
2022/04/09 13:29:56;;;;;;;4.17;2.10;;;;;;;15.31;27.40;97894.81;1717847;81;21018;-39
2022/04/09 13:32:24;;;;;;;4.47;2.35;;;;;;;14.75;27.69;97893.97;1684532;83;21553;-38
2022/04/09 13:34:51;;;;;;;3.62;1.70;;;;;;;14.07;27.89;97900.25;1728324;81;20993;-35
2022/04/09 13:37:19;;;;;;;3.85;2.02;;;;;;;13.39;28.88;97923.52;1720375;82;21039;-40
2022/04/09 13:39:44;;;;;;;3.77;1.75;;;;;;;13.10;29.64;97910.23;1687806;84;20989;-36
2022/04/09 13:42:10;;;;;;;8.93;3.10;;;;;;;12.54;29.83;97897.02;1708675;84;21083;-38
2022/04/09 13:44:43;;;;;;;4.12;2.27;;;;;;;12.43;29.58;97915.56;1709102;83;21075;-38
2022/04/09 13:47:11;;;;;;;14.30;7.12;;;;;;;12.09;29.81;97907.85;1682506;83;21063;-37
2022/04/09 13:49:40;;;;;;;9.25;4.83;;;;;;;11.74;30.56;97938.41;1702347;84;21497;-36
2022/04/09 13:52:07;;;;;;;4.75;3.25;;;;;;;11.60;30.92;97921.09;1717247;82;21020;-36
2022/04/09 13:54:33;;;;;;;;;;;;;;;11.29;31.21;97913.03;1681697;83;21008;-36
2022/04/09 13:56:59;;;;;;;9.53;4.60;;;;;;;11.16;31.53;97918.45;1711544;84;20158;-35
2022/04/09 13:59:35;;;;;;;12.15;8.10;;;;;;;11.05;31.73;97922.41;1719416;81;21575;-38
2022/04/09 14:01:54;;;;;;;5.67;3.27;;;;;;;10.89;31.85;97925.41;1715442;82;21189;-38
2022/04/09 14:04:21;;;;;;;5.40;3.00;;;;;;;10.78;32.00;97915.73;1713525;82;21039;-36
2022/04/09 14:06:47;;;;;;;4.30;2.67;;;;;;;10.87;32.12;97928.64;1721933;82;21471;-38
2022/04/09 14:09:24;;;;;;;3.45;2.70;;;;;;;10.88;32.11;97935.10;1723346;82;20965;-39
2022/04/09 14:11:56;;;;;;;10.72;2.98;;;;;;;10.71;32.13;97931.17;1716826;82;21069;-39
2022/04/09 14:14:24;;;;;;;6.22;2.10;;;;;;;10.52;32.12;97926.96;1718109;82;21488;-38
2022/04/09 14:16:49;;;;;;;3.65;2.40;;;;;;;10.27;32.79;97932.73;1717709;82;21047;-37
2022/04/09 14:19:15;;;;;;;8.23;2.70;;;;;;;10.47;33.13;97934.36;1719548;82;21022;-36
2022/04/09 14:21:55;;;;;;;6.62;2.02;;;;;;;10.60;32.72;97934.25;1698152;84;21005;-43
2022/04/09 14:24:13;;;;;;;3.52;1.60;;;;;;;10.72;33.10;97918.84;1683315;84;21487;-35
2022/04/09 14:26:39;;;;;;;3.58;2.30;;;;;;;10.89;32.57;97924.92;1696634;84;20998;-40
2022/04/09 14:29:05;;;;;;;9.13;2.20;;;;;;;10.91;32.88;97928.75;1689718;83;21602;-40
2022/04/09 14:31:32;;;;;;;4.95;2.10;;;;;;;11.00;32.36;97921.45;1688540;84;21048;-39
2022/04/09 14:34:01;;;;;;;5.83;2.30;;;;;;;11.12;32.63;97936.27;1692730;84;21384;-41
2022/04/09 14:36:27;;;;;;;4.67;2.08;;;;;;;10.91;32.03;97924.34;1691084;83;21068;-39
2022/04/09 14:38:54;;;;;;;8.90;2.20;;;;;;;10.99;31.90;97930.77;1693157;83;21002;-38
2022/04/09 14:41:21;;;;;;;5.78;2.70;;;;;;;11.08;32.17;97930.08;1701364;82;21494;-41
2022/04/09 14:43:47;;;;;;;6.45;1.92;;;;;;;11.08;31.80;97930.91;1705928;83;21552;-40
2022/04/09 14:46:13;;;;;;;5.55;2.12;;;;;;;10.92;31.87;97931.75;1703559;82;21600;-40
2022/04/09 14:48:39;;;;;;;3.72;2.17;;;;;;;10.86;31.72;97942.73;1713481;82;20981;-40
2022/04/09 14:51:05;;;;;;;3.77;1.82;;;;;;;10.81;32.12;97929.13;1705987;83;21045;-39
2022/04/09 14:53:35;;;;;;;6.85;2.10;;;;;;;10.90;31.79;97937.13;1710441;82;21534;-39
2022/04/09 14:56:02;;;;;;;5.03;1.90;;;;;;;11.03;31.45;97925.66;1708656;83;21009;-39
2022/04/09 14:58:28;;;;;;;4.47;1.80;;;;;;;10.95;30.41;97931.48;1708136;83;21115;-39
2022/04/09 15:00:55;;;;;;;3.35;2.15;;;;;;;11.00;30.77;97931.14;1708483;83;21033;-41
2022/04/09 15:03:22;;;;;;;2.72;2.45;;;;;;;11.04;30.71;97941.31;1706891;82;21012;-40
2022/04/09 15:05:48;;;;;;;3.55;1.80;;;;;;;10.97;30.51;97949.33;1710766;83;21501;-37
2022/04/09 15:08:14;;;;;;;6.87;1.98;;;;;;;10.61;29.93;97949.91;1704715;83;20997;-38
2022/04/09 15:10:40;;;;;;;4.15;1.92;;;;;;;10.53;29.84;97957.08;1707204;83;21076;-41
2022/04/09 15:13:05;;;;;;;3.83;2.05;;;;;;;10.31;29.79;97958.33;1710199;83;21040;-40
2022/04/09 15:15:31;;;;;;;7.70;2.30;;;;;;;10.37;30.28;97952.14;1710174;83;21052;-38
2022/04/09 15:17:57;;;;;;;4.85;1.52;;;;;;;10.33;30.60;97950.70;1708553;82;21593;-39
2022/04/09 15:20:23;;;;;;;4.00;1.80;;;;;;;10.49;29.97;97954.30;1707771;82;21013;-39
2022/04/09 15:22:49;;;;;;;4.00;1.67;;;;;;;10.37;29.88;97951.31;1708765;82;21542;-40
2022/04/09 15:25:15;;;;;;;5.90;1.95;;;;;;;10.50;29.98;97965.67;1706309;82;20978;-38
2022/04/09 15:27:42;;;;;;;2.70;1.70;;;;;;;10.41;30.09;97966.37;1706425;83;21459;-39
2022/04/09 15:30:10;;;;;;;3.42;1.70;;;;;;;10.17;29.48;97964.13;1704245;83;21505;-39
2022/04/09 15:32:39;;;;;;;3.17;1.65;;;;;;;10.34;30.17;97969.93;1704293;83;21017;-39
2022/04/09 15:35:06;;;;;;;2.75;1.65;;;;;;;10.28;29.65;97974.31;1709617;82;21080;-39
2022/04/09 15:37:32;;;;;;;;;;;;;;;10.16;30.23;97993.12;1708181;81;21364;-38
2022/04/09 15:39:58;;;;;;;5.42;3.20;;;;;;;10.04;29.06;97980.90;1708146;83;20619;-37
2022/04/09 15:42:25;;;;;;;8.63;3.02;;;;;;;10.14;30.03;97995.03;1710901;83;21012;-39
2022/04/09 15:44:52;;;;;;;9.98;4.95;;;;;;;10.09;30.26;97980.09;1707655;83;20988;-39
2022/04/09 15:47:18;;;;;;;8.18;3.75;;;;;;;10.16;30.66;97978.20;1708443;82;21013;-39
2022/04/09 15:49:44;;;;;;;16.90;8.25;;;;;;;10.06;30.24;97986.42;1704595;83;21550;-39
2022/04/09 15:52:10;;;;;;;5.78;2.90;;;;;;;9.95;30.19;97996.40;1707050;82;21509;-39
2022/04/09 15:54:42;;;;;;;5.40;2.12;;;;;;;9.95;30.06;97996.40;1707931;83;20981;-41
2022/04/09 15:57:05;;;;;;;5.37;2.17;;;;;;;9.93;30.42;97992.19;1704629;82;21613;-40
2022/04/09 15:59:32;;;;;;;8.83;5.00;;;;;;;9.89;30.36;97993.38;1708830;83;20998;-38
2022/04/09 16:02:00;;;;;;;20.70;10.32;;;;;;;10.00;30.66;97994.73;1699193;82;20976;-38
2022/04/09 16:04:26;;;;;;;20.57;12.95;;;;;;;10.01;30.69;97995.11;1707413;82;21048;-37
2022/04/09 16:06:53;;;;;;;16.65;11.28;;;;;;;9.87;30.38;98001.84;1707700;83;21014;-37
2022/04/09 16:09:18;;;;;;;8.30;5.55;;;;;;;9.84;30.98;98004.69;1703872;82;21007;-38
2022/04/09 16:11:45;;;;;;;4.17;2.90;;;;;;;9.76;31.11;98010.50;1707353;83;21015;-42
2022/04/09 16:14:10;;;;;;;4.62;2.70;;;;;;;9.71;31.31;98003.42;1708801;82;21520;-40
2022/04/09 16:16:36;;;;;;;7.00;2.30;;;;;;;9.66;31.07;98002.91;1707591;82;21011;-38
2022/04/09 16:19:03;;;;;;;6.37;3.25;;;;;;;9.59;31.19;98004.68;1702671;82;21039;-38
2022/04/09 16:21:29;;;;;;;5.55;2.67;;;;;;;9.52;31.45;98005.23;1705845;82;21485;-38
2022/04/09 16:23:57;;;;;;;6.28;2.20;;;;;;;9.43;31.21;98010.66;1706270;83;21442;-38
2022/04/09 16:26:22;;;;;;;;;;;;;;;9.41;31.26;98018.64;1709852;82;21138;-38
2022/04/09 16:28:49;;;;;;;6.35;3.50;;;;;;;9.25;31.44;98018.05;1701987;84;20139;-37
2022/04/09 16:31:15;;;;;;;5.17;2.50;;;;;;;9.27;31.91;98020.56;1701831;83;21031;-38
2022/04/09 16:33:41;;;;;;;5.50;2.20;;;;;;;9.21;31.70;98021.83;1704580;83;21011;-38
2022/04/09 16:36:08;;;;;;;4.03;1.87;;;;;;;9.07;31.08;98018.02;1709824;82;21007;-39
2022/04/09 16:38:35;;;;;;;5.62;2.60;;;;;;;9.03;31.29;98018.70;1707929;82;21042;-38
2022/04/09 16:41:01;;;;;;;5.83;2.00;;;;;;;8.96;31.30;98029.25;1708030;82;20987;-38
2022/04/09 16:43:27;;;;;;;6.85;2.37;;;;;;;8.89;31.78;98028.82;1707786;83;20979;-38
2022/04/09 16:45:54;;;;;;;4.62;2.02;;;;;;;8.82;32.05;98038.91;1710053;82;21508;-39
2022/04/09 16:48:20;;;;;;;5.72;2.83;;;;;;;8.73;32.48;98032.13;1707913;82;21003;-38
2022/04/09 16:50:46;;;;;;;7.15;2.37;;;;;;;8.62;32.92;98034.16;1709915;82;21003;-38
2022/04/09 16:53:13;;;;;;;3.12;2.08;;;;;;;8.69;32.74;98030.18;1707402;82;21007;-38
2022/04/09 16:55:39;;;;;;;6.45;2.05;;;;;;;8.67;33.11;98034.69;1711090;83;21063;-37
2022/04/09 16:58:05;;;;;;;7.75;2.98;;;;;;;8.68;33.09;98028.97;1708634;83;21105;-38
2022/04/09 17:00:34;;;;;;;10.25;2.65;;;;;;;8.61;33.21;98037.73;1707455;82;21014;-37
2022/04/09 17:03:01;;;;;;;3.85;2.30;;;;;;;8.55;33.80;98037.69;1706354;82;21019;-40
2022/04/09 17:05:28;;;;;;;3.77;2.35;;;;;;;8.53;33.75;98040.02;1705150;82;21031;-36
2022/04/09 17:07:55;;;;;;;4.67;2.20;;;;;;;8.43;34.34;98050.28;1708903;82;21047;-38
2022/04/09 17:10:22;;;;;;;10.03;3.08;;;;;;;8.39;34.24;98048.78;1708679;82;21543;-37
2022/04/09 17:12:48;;;;;;;5.25;2.40;;;;;;;8.30;34.57;98054.16;1685327;84;21004;-38
2022/04/09 17:15:15;;;;;;;6.20;2.30;;;;;;;8.28;34.70;98061.27;1686939;83;21076;-38
2022/04/09 17:17:41;;;;;;;4.12;2.08;;;;;;;8.12;34.81;98072.38;1670574;84;21051;-39
2022/04/09 17:20:08;;;;;;;3.30;2.53;;;;;;;8.10;34.81;98071.64;1671459;84;21457;-38
2022/04/09 17:22:36;;;;;;;3.17;1.95;;;;;;;8.05;35.07;98063.59;1665254;84;21545;-38
2022/04/09 17:25:03;;;;;;;3.98;1.87;;;;;;;8.03;34.86;98074.64;1679476;82;20987;-39
2022/04/09 17:27:29;;;;;;;8.73;2.67;;;;;;;7.91;35.44;98071.49;1714165;82;21599;-37
2022/04/09 17:29:55;;;;;;;4.17;1.80;;;;;;;7.87;35.60;98076.56;1708561;82;21063;-38
2022/04/09 17:32:24;;;;;;;6.65;2.45;;;;;;;7.82;35.84;98077.31;1693893;83;21600;-38
2022/04/09 17:34:48;;;;;;;6.28;2.70;;;;;;;7.82;35.81;98082.10;1695845;83;21465;-37
2022/04/09 17:37:14;;;;;;;7.80;2.90;;;;;;;7.80;35.93;98080.50;1695883;83;21008;-38
2022/04/09 17:39:42;;;;;;;9.90;2.72;;;;;;;7.67;36.54;98090.42;1691760;83;21089;-38
2022/04/09 17:42:09;;;;;;;;;;;;;;;7.68;36.28;98090.81;1702642;83;21481;-39
2022/04/09 17:44:35;;;;;;;6.03;3.17;;;;;;;7.59;36.75;98093.17;1669687;84;20136;-37
2022/04/09 17:47:01;;;;;;;11.75;4.25;;;;;;;7.56;36.51;98099.90;1691371;83;21527;-38
2022/04/09 17:49:27;;;;;;;9.60;3.75;;;;;;;7.49;36.92;98099.42;1697328;84;21059;-38
2022/04/09 17:51:53;;;;;;;20.10;6.15;;;;;;;7.48;36.89;98095.14;1710604;82;20988;-39
2022/04/09 17:54:19;;;;;;;17.73;6.10;;;;;;;7.46;37.00;98107.48;1715330;82;20976;-38
2022/04/09 17:56:45;;;;;;;13.22;5.10;;;;;;;7.42;37.30;98116.43;1702929;82;20971;-37
2022/04/09 17:59:11;;;;;;;24.65;8.63;;;;;;;7.36;37.39;98116.34;1705872;82;21000;-38
2022/04/09 18:01:37;;;;;;;18.35;6.15;;;;;;;7.26;38.05;98119.16;1698002;84;21024;-39
2022/04/09 18:04:03;;;;;;;26.10;7.58;;;;;;;7.26;37.84;98128.31;1702020;84;21501;-37
2022/04/09 18:06:29;;;;;;;15.10;5.75;;;;;;;7.24;37.97;98127.09;1706534;83;20976;-37
2022/04/09 18:08:54;;;;;;;20.52;6.67;;;;;;;7.23;38.72;98135.86;1701684;84;21635;-38
2022/04/09 18:11:20;;;;;;;7.42;3.80;;;;;;;7.22;38.04;98134.20;1694318;82;21059;-38
2022/04/09 18:13:46;;;;;;;14.23;4.90;;;;;;;7.17;38.31;98130.14;1684306;82;21059;-38
2022/04/09 18:16:15;;;;;;;9.45;3.95;;;;;;;7.11;39.19;98139.20;1716221;81;21494;-38
2022/04/09 18:18:39;;;;;;;;;;;;;;;7.11;39.08;98141.81;1713436;82;21003;-39
2022/04/09 18:21:05;;;;;;;8.10;4.92;;;;;;;7.09;39.77;98139.76;1682949;83;20405;-39
2022/04/09 18:23:31;;;;;;;7.50;4.22;;;;;;;7.09;39.10;98148.91;1693025;82;21001;-38
2022/04/09 18:25:57;;;;;;;8.78;4.20;;;;;;;7.07;39.08;98140.33;1694786;83;21043;-39
2022/04/09 18:28:23;;;;;;;9.40;5.28;;;;;;;7.03;39.30;98150.59;1669668;83;21522;-38
2022/04/09 18:30:49;;;;;;;20.82;5.05;;;;;;;6.99;39.66;98149.09;1685017;83;21500;-38
2022/04/09 18:33:16;;;;;;;8.93;4.50;;;;;;;6.99;39.85;98153.02;1703291;83;21501;-40
2022/04/09 18:35:43;;;;;;;17.23;4.47;;;;;;;6.96;40.03;98151.88;1701613;82;21027;-37
2022/04/09 18:38:10;;;;;;;11.75;4.92;;;;;;;6.95;40.21;98161.50;1690410;82;21553;-37
2022/04/09 18:40:37;;;;;;;9.40;3.87;;;;;;;6.95;40.14;98162.81;1699691;83;21012;-37
2022/04/09 18:43:04;;;;;;;11.67;4.60;;;;;;;6.89;40.54;98162.71;1702042;82;21006;-38
2022/04/09 18:45:30;;;;;;;10.60;4.50;;;;;;;6.83;40.81;98161.73;1704054;84;21941;-36
2022/04/09 18:47:56;;;;;;;9.33;4.87;;;;;;;6.80;41.41;98156.69;1697480;81;21069;-39
2022/04/09 18:50:23;;;;;;;14.30;5.40;;;;;;;6.79;41.01;98160.24;1702516;84;21040;-37
2022/04/09 18:52:52;;;;;;;13.08;5.33;;;;;;;6.80;40.97;98163.22;1727555;82;21489;-42
2022/04/09 18:55:18;;;;;;;18.52;5.87;;;;;;;6.75;41.75;98161.36;1705297;84;21546;-38
2022/04/09 18:57:46;;;;;;;12.90;6.35;;;;;;;6.74;41.49;98159.66;1702117;84;20959;-37
2022/04/09 19:00:12;;;;;;;;;;;;;;;6.73;41.64;98165.80;1707361;83;21500;-37
2022/04/09 19:02:40;;;;;;;9.93;5.53;;;;;;;6.66;42.82;98173.65;1705397;84;20097;-38
2022/04/09 19:05:06;;;;;;;;;;;;;;;6.64;41.84;98178.95;1704173;83;21004;-40
2022/04/09 19:07:33;;;;;;;12.45;5.72;;;;;;;6.56;43.39;98179.01;1700610;83;20710;-38
2022/04/09 19:09:59;;;;;;;13.88;5.37;;;;;;;6.55;42.00;98180.78;1701394;84;21012;-38
2022/04/09 19:12:25;;;;;;;13.70;5.90;;;;;;;6.49;41.86;98179.36;1696439;84;20962;-38
2022/04/09 19:14:51;;;;;;;9.18;4.70;;;;;;;6.45;42.37;98179.14;1716050;82;21163;-39
2022/04/09 19:17:17;;;;;;;9.93;4.78;;;;;;;6.45;42.15;98179.61;1705387;82;21054;-38
2022/04/09 19:19:43;;;;;;;9.40;4.33;;;;;;;6.42;42.19;98184.55;1722465;82;21034;-37
2022/04/09 19:22:09;;;;;;;8.55;4.10;;;;;;;6.42;42.27;98183.69;1699235;83;21003;-37
2022/04/09 19:24:36;;;;;;;9.05;4.37;;;;;;;6.41;42.02;98185.94;1684227;83;21028;-37
2022/04/09 19:27:03;;;;;;;10.40;4.95;;;;;;;6.32;42.69;98187.29;1693304;83;20994;-37
2022/04/09 19:29:29;;;;;;;15.68;4.85;;;;;;;6.33;42.34;98192.88;1695011;82;20979;-37
2022/04/09 19:31:56;;;;;;;9.43;5.05;;;;;;;6.26;43.20;98188.48;1694437;84;21061;-39
2022/04/09 19:34:22;;;;;;;16.07;4.95;;;;;;;6.22;42.79;98186.97;1695655;83;21436;-37
2022/04/09 19:36:49;;;;;;;9.90;5.03;;;;;;;6.17;44.49;98189.42;1689457;83;21544;-43
2022/04/09 19:39:15;;;;;;;10.68;5.03;;;;;;;6.12;44.99;98185.31;1689072;84;20949;-38
2022/04/09 19:41:41;;;;;;;15.75;6.50;;;;;;;6.12;44.17;98184.00;1694421;84;20974;-38
2022/04/09 19:44:08;;;;;;;12.53;5.90;;;;;;;6.10;44.99;98186.33;1713863;82;21496;-38
2022/04/09 19:46:34;;;;;;;16.30;6.13;;;;;;;6.10;44.93;98188.47;1711556;82;21074;-38
2022/04/09 19:49:00;;;;;;;11.63;5.80;;;;;;;6.10;45.31;98197.61;1716966;82;21019;-40
2022/04/09 19:51:27;;;;;;;17.32;5.67;;;;;;;6.07;46.23;98197.77;1667279;84;20992;-40
2022/04/09 19:53:53;;;;;;;10.85;6.33;;;;;;;6.03;47.72;98208.00;1702930;84;21015;-38
2022/04/09 19:56:19;;;;;;;14.58;6.60;;;;;;;6.00;48.02;98218.59;1703799;84;21007;-38
2022/04/09 19:58:46;;;;;;;16.80;7.08;;;;;;;6.01;48.67;98233.81;1703345;83;20995;-38
2022/04/09 20:01:12;;;;;;;15.75;7.22;;;;;;;5.99;48.15;98233.89;1696090;83;21041;-39
2022/04/09 20:03:38;;;;;;;17.87;8.18;;;;;;;5.89;50.03;98250.44;1700917;83;21188;-38
2022/04/09 20:06:04;;;;;;;25.12;9.60;;;;;;;5.83;48.79;98259.08;1668495;83;21054;-39
2022/04/09 20:08:30;;;;;;;106.12;39.53;;;;;;;5.73;49.77;98267.39;1667814;84;21062;-38
2022/04/09 20:10:56;;;;;;;74.60;35.68;;;;;;;5.65;50.09;98273.45;1702323;83;21005;-37
2022/04/09 20:13:22;;;;;;;45.98;24.65;;;;;;;5.49;52.58;98275.16;1709178;83;21025;-37
2022/04/09 20:15:48;;;;;;;27.30;14.35;;;;;;;5.51;51.59;98261.13;1707556;83;20997;-37
2022/04/09 20:18:14;;;;;;;25.02;13.15;;;;;;;5.41;52.04;98261.68;1707590;83;21016;-38
2022/04/09 20:20:41;;;;;;;21.90;10.32;;;;;;;5.32;52.73;98262.51;1711091;82;21004;-39
2022/04/09 20:23:12;;;;;;;18.07;9.00;;;;;;;5.23;53.96;98255.63;1707382;83;21419;-38
2022/04/09 20:25:35;;;;;;;21.93;9.13;;;;;;;5.23;52.46;98250.41;1707217;83;21005;-38
2022/04/09 20:28:01;;;;;;;16.70;7.58;;;;;;;5.08;54.96;98252.02;1709749;82;21013;-38
2022/04/09 20:30:27;;;;;;;30.10;9.90;;;;;;;5.10;53.79;98256.70;1705828;83;21025;-38
2022/04/09 20:32:53;;;;;;;23.52;10.23;;;;;;;5.07;53.97;98252.93;1711682;82;21056;-38
2022/04/09 20:35:19;;;;;;;20.20;8.78;;;;;;;5.04;54.24;98255.67;1707535;83;21417;-39
2022/04/09 20:37:45;;;;;;;25.72;9.05;;;;;;;5.02;54.40;98251.88;1716840;82;20963;-39
2022/04/09 20:40:11;;;;;;;24.82;8.83;;;;;;;4.99;55.62;98252.84;1708826;83;21057;-41
2022/04/09 20:42:37;;;;;;;19.60;7.25;;;;;;;4.98;55.63;98253.78;1683064;83;21008;-38
2022/04/09 20:45:04;;;;;;;17.60;8.68;;;;;;;4.92;56.27;98252.77;1682006;84;20982;-34
2022/04/09 20:47:36;;;;;;;17.03;8.53;;;;;;;4.95;55.22;98261.73;1691025;83;20985;-35
2022/04/09 20:50:03;;;;;;;21.90;9.33;;;;;;;4.93;56.08;98269.23;1663681;83;21073;-35
2022/04/09 20:52:29;;;;;;;21.33;9.77;;;;;;;4.91;55.59;98281.05;1707410;83;21080;-37
2022/04/09 20:54:54;;;;;;;17.07;9.20;;;;;;;4.90;55.72;98290.23;1698535;83;21116;-35
2022/04/09 20:57:20;;;;;;;30.48;11.45;;;;;;;4.83;56.00;98300.09;1681853;84;21011;-35
2022/04/09 20:59:46;;;;;;;24.60;9.53;;;;;;;4.69;58.45;98294.70;1694331;83;21030;-36
2022/04/09 21:02:12;;;;;;;19.65;7.97;;;;;;;4.62;57.25;98291.56;1694387;83;21017;-34
2022/04/09 21:04:38;;;;;;;16.73;7.50;;;;;;;4.57;58.06;98294.84;1691285;82;21001;-35
2022/04/09 21:07:04;;;;;;;17.25;7.83;;;;;;;4.44;60.24;98297.16;1691726;83;21016;-35
2022/04/09 21:09:30;;;;;;;12.30;6.72;;;;;;;4.49;57.31;98300.38;1715084;82;20986;-35
2022/04/09 21:11:56;;;;;;;18.37;6.65;;;;;;;4.44;58.51;98302.37;1720258;82;21484;-36
2022/04/09 21:14:22;;;;;;;13.38;4.95;;;;;;;4.31;63.26;98303.39;1718013;81;21476;-35
2022/04/09 21:16:48;;;;;;;13.22;4.67;;;;;;;4.33;60.65;98304.59;1711239;83;21034;-34
2022/04/09 21:19:16;;;;;;;11.93;4.40;;;;;;;4.27;61.94;98299.69;1680204;83;21488;-35
2022/04/09 21:21:41;;;;;;;10.05;3.92;;;;;;;4.20;63.51;98303.88;1697648;83;21526;-36
2022/04/09 21:24:08;;;;;;;10.80;4.05;;;;;;;4.23;60.77;98301.12;1713787;81;21243;-38
2022/04/09 21:26:34;;;;;;;12.18;4.08;;;;;;;4.20;62.18;98309.09;1675582;82;21013;-34
2022/04/09 21:29:01;;;;;;;10.82;3.87;;;;;;;4.17;63.19;98314.41;1691807;84;21044;-35
2022/04/09 21:31:27;;;;;;;12.43;4.47;;;;;;;4.15;64.80;98309.74;1719608;81;20966;-37
2022/04/09 21:33:53;;;;;;;17.50;4.30;;;;;;;4.17;62.91;98316.19;1710901;82;21517;-36
2022/04/09 21:36:19;;;;;;;13.80;4.17;;;;;;;4.10;66.17;98306.96;1708532;82;20933;-36
2022/04/09 21:38:45;;;;;;;12.68;4.45;;;;;;;4.06;66.36;98323.16;1722842;82;21461;-35
2022/04/09 21:41:12;;;;;;;11.22;4.33;;;;;;;4.06;65.42;98319.27;1684290;84;20976;-35
2022/04/09 21:43:38;;;;;;;16.80;4.50;;;;;;;4.01;65.84;98329.02;1699930;84;20992;-35
2022/04/09 21:46:05;;;;;;;11.65;3.85;;;;;;;3.89;68.51;98332.16;1692734;84;21526;-35
2022/04/09 21:48:31;;;;;;;14.63;4.03;;;;;;;3.80;68.31;98333.39;1699559;84;21456;-35
2022/04/09 21:50:57;;;;;;;8.88;4.15;;;;;;;3.80;67.82;98338.16;1701807;82;21086;-35
2022/04/09 21:53:23;;;;;;;9.85;4.70;;;;;;;3.85;66.44;98338.78;1697976;83;20948;-34
2022/04/09 21:55:50;;;;;;;10.43;4.45;;;;;;;3.82;66.12;98350.64;1699072;83;20982;-34
2022/04/09 21:58:16;;;;;;;11.17;4.57;;;;;;;3.78;66.95;98354.28;1678994;84;21474;-34
2022/04/09 22:00:56;;;;;;;15.85;4.45;;;;;;;3.74;67.95;98347.50;1670937;85;21032;-36
2022/04/09 22:03:22;;;;;;;10.23;4.15;;;;;;;3.74;66.63;98349.27;1670998;86;20976;-36
2022/04/09 22:05:48;;;;;;;11.22;3.75;;;;;;;3.72;67.07;98351.09;1704018;84;20979;-35
2022/04/09 22:08:14;;;;;;;7.90;4.03;;;;;;;3.63;67.86;98353.16;1704927;83;20987;-35
2022/04/09 22:10:40;;;;;;;16.17;3.90;;;;;;;3.66;67.04;98356.09;1704999;83;21484;-37
2022/04/09 22:13:09;;;;;;;14.47;4.40;;;;;;;3.62;69.16;98355.81;1702611;84;20968;-36
2022/04/09 22:15:37;;;;;;;11.33;4.45;;;;;;;3.62;69.04;98355.81;1694881;84;21043;-37
2022/04/09 22:18:06;;;;;;;11.57;3.72;;;;;;;3.64;68.10;98361.83;1718767;82;21001;-36
2022/04/09 22:20:46;;;;;;;13.40;4.28;;;;;;;3.64;68.10;98367.02;1725221;82;21144;-34
2022/04/09 22:23:02;;;;;;;8.60;4.03;;;;;;;3.68;67.43;98371.17;1694359;82;21471;-35
2022/04/09 22:25:28;;;;;;;10.95;3.87;;;;;;;3.62;69.43;98379.21;1704931;82;21512;-38
2022/04/09 22:27:53;;;;;;;14.10;4.33;;;;;;;3.65;68.37;98377.33;1672872;83;21079;-36
2022/04/09 22:30:19;;;;;;;9.03;4.53;;;;;;;3.61;69.49;98374.94;1692844;83;21019;-39
2022/04/09 22:32:45;;;;;;;12.95;5.40;;;;;;;3.60;68.20;98383.63;1676999;83;21001;-37
2022/04/09 22:35:16;;;;;;;10.28;4.35;;;;;;;3.56;68.65;98390.72;1691631;83;21475;-38
2022/04/09 22:37:40;;;;;;;12.55;4.70;;;;;;;3.48;70.84;98390.66;1684835;82;21094;-34
2022/04/09 22:40:09;;;;;;;15.20;4.70;;;;;;;3.46;69.93;98388.95;1689638;83;21422;-36
2022/04/09 22:42:35;;;;;;;11.18;5.20;;;;;;;3.37;71.57;98393.23;1696382;82;20988;-45
2022/04/09 22:45:08;;;;;;;20.80;6.10;;;;;;;3.41;70.72;98405.19;1688961;83;21015;-37
2022/04/09 22:47:34;;;;;;;18.20;6.30;;;;;;;3.40;70.48;98402.22;1690727;83;21015;-36
2022/04/09 22:50:01;;;;;;;11.95;5.95;;;;;;;3.41;69.51;98397.39;1673652;83;20956;-35
2022/04/09 22:52:29;;;;;;;19.67;5.90;;;;;;;3.42;70.35;98408.19;1683094;83;21533;-35
2022/04/09 22:54:56;;;;;;;17.50;5.90;;;;;;;3.43;70.92;98405.97;1681596;84;21034;-34
2022/04/09 22:57:22;;;;;;;15.85;6.03;;;;;;;3.44;70.47;98403.77;1678669;84;21035;-36
2022/04/09 22:59:50;;;;;;;11.38;5.97;;;;;;;3.46;71.21;98408.45;1694935;84;21102;-36
2022/04/09 23:02:17;;;;;;;18.02;5.70;;;;;;;3.46;70.58;98416.25;1695635;83;20989;-34
2022/04/09 23:04:43;;;;;;;14.35;5.55;;;;;;;3.49;69.33;98416.56;1693760;83;21029;-35
2022/04/09 23:07:09;;;;;;;9.63;4.87;;;;;;;3.50;69.85;98421.33;1697949;83;21040;-35
2022/04/09 23:09:37;;;;;;;13.60;6.17;;;;;;;3.43;71.10;98420.27;1704176;84;21025;-43
2022/04/09 23:12:04;;;;;;;10.00;5.47;;;;;;;3.43;69.88;98417.66;1709463;83;21024;-42
2022/04/09 23:14:31;;;;;;;;;;;;;;;3.29;73.34;98429.52;1689031;84;21749;-45
2022/04/09 23:16:56;;;;;;;21.77;6.20;;;;;;;3.31;72.43;98423.37;1681819;84;20593;-43
2022/04/09 23:19:22;;;;;;;15.48;6.72;;;;;;;3.25;72.50;98418.41;1676052;83;20984;-44
2022/04/09 23:21:48;;;;;;;11.33;5.97;;;;;;;3.22;71.90;98425.01;1680509;83;21552;-42
2022/04/09 23:24:14;;;;;;;10.60;5.75;;;;;;;3.15;72.26;98423.59;1680573;84;21004;-44
2022/04/09 23:26:40;;;;;;;25.20;6.95;;;;;;;3.20;72.01;98428.12;1675546;84;21500;-44
2022/04/09 23:29:06;;;;;;;13.53;6.30;;;;;;;3.12;72.12;98425.00;1681839;84;21496;-42
2022/04/09 23:31:32;;;;;;;17.12;6.60;;;;;;;3.16;70.79;98429.16;1671166;84;21067;-41
2022/04/09 23:33:58;;;;;;;12.68;5.72;;;;;;;3.15;71.31;98433.98;1689542;83;21475;-42
2022/04/09 23:36:28;;;;;;;18.17;5.90;;;;;;;3.08;72.27;98432.90;1687628;84;21095;-41
2022/04/09 23:38:54;;;;;;;13.40;5.92;;;;;;;3.07;72.88;98432.95;1726975;82;21004;-43
2022/04/09 23:41:22;;;;;;;16.97;6.55;;;;;;;3.07;72.10;98433.82;1717629;83;21039;-40
2022/04/09 23:43:50;;;;;;;13.85;5.60;;;;;;;2.99;73.83;98437.15;1718087;83;21079;-43
2022/04/09 23:46:16;;;;;;;15.63;6.28;;;;;;;3.01;73.26;98440.53;1717250;83;21016;-41